Huzzah Creek (Missouri), Steelville (07014000)

StateMissouriLatestGood (453 cfs)
RiverHuzzah CreekRatingObservedEstimated
Updated2020-02-25 13:30 (1 hour ago)Flood - The river is flooding. Obstacles can be treacherous or deadly. The river should be avoided at this stage for casual trips and definitely for the inexperienced. Trips should be attempted only with protective gear and equipment.Flood(none)1783
Discharge453 cfs (median: 182 cfs)High - The river is high and potentially dangerous, especially for the young and / or inexperienced. Normal stream obstacles are sometimes difficult to navigate. Extended distances can be attempted, but canoe travel may not be advisable.High(none)724
Height3.87 feetGood - Conditions are ideal for a canoe or kayak. Boats typically will drag on fewer than one-quarter of riffles, if at all, and portages are unnecessary or rare. Normal float lengths can be attempted without a problem.Good(none)358
TrendFalling (rising over 24 hours)Low - River is low but can still be floated. Some riffles are okay but most come with significant dragging and might need a portage. Float lengths should be reduced to accommodate low flow, dragging, and portages.Low(none)160
USGSExternal icon USGS Site (External icon Google Maps)Poor - River is too low to float comfortably. Most or all riffles will drag or must be portaged and some obstacles (such as slick shelf rock) cause undue problems. Avoid the river at this stage for casual paddling trips.Poor(none)84

Trending Data

Plot Image

Trips for Huzzah Creek (Missouri), Steelville (07014000)

DateStartEndDistanceConditionDischargeHeightFishingDetails
Click for details2012-08-25 Scotia Meramec River Total trip distance: 3.8 miles1.3 Low 41 2.08 None NoneNone Alderson, Daniel
Caldwell, Justin
Edmond, Brian
Filson, Nathan
Ince, Seth
Luebrecht, Michael
Luebrecht, Ryan
Scherder, Travis
Smith, Andy
Alderson, Daniel; Caldwell, Justin; Edmond, Brian; Filson, Nathan; Ince, Seth; Luebrecht, Michael; Luebrecht, Ryan; Scherder, Travis; Smith, Andy
The Bull Float Trip. The river was packed with people, with boats literally touching for much of the trip.The Bull Float Trip.  The river was packed with people, with boats literally touching for much of the trip. USGS Gauge Data:
Steelville (07014000)
Discharge: 41
Height: 2.08
<b>USGS Gauge Data:</b></br />Steelville (07014000)<br />Discharge: 41<br />Height: 2.08
Source: EdmondSource: Edmond

A total of 1 rows are displayed.

Trip Summary for Huzzah Creek (Missouri), Steelville (07014000)

Miles1.3
Trips1
People9
Dates1
Years1
Months1
Rows1
Sources1

Condition Descriptions

Fishing Conditions

Fish Species

Notes

Classic Trip List

The classic River Trips application is still available for use. It is updated with the new system using a data retrofit. It is no longer maintained. The original River Trips application is no longer updated (as of 1 Dec 2016) but can be checked for errors or for the condition of the data before it was converted to the new system.

Gauge Data Table

ObservationHeightDischargeMaximum
Discharge
Minimum
Discharge
Mean
Discharge
P05P10P20P25P50
(Median)
P75P80P90P95
2020-02-25 13:30 3.87 453 4560 (2018) 76 (2017) 743 78 88 109 182 579 1240 3830
2020-02-25 12:30 3.88 457 4560 (2018) 76 (2017) 743 78 88 109 182 579 1240 3830
2020-02-25 11:30 3.88 457 4560 (2018) 76 (2017) 743 78 88 109 182 579 1240 3830
2020-02-25 10:30 3.89 462 4560 (2018) 76 (2017) 743 78 88 109 182 579 1240 3830
2020-02-25 09:30 3.88 457 4560 (2018) 76 (2017) 743 78 88 109 182 579 1240 3830
2020-02-25 08:30 3.89 462 4560 (2018) 76 (2017) 743 78 88 109 182 579 1240 3830
2020-02-25 07:30 3.87 453 4560 (2018) 76 (2017) 743 78 88 109 182 579 1240 3830
2020-02-25 06:30 3.88 457 4560 (2018) 76 (2017) 743 78 88 109 182 579 1240 3830
2020-02-25 05:30 3.88 457 4560 (2018) 76 (2017) 743 78 88 109 182 579 1240 3830
2020-02-25 04:30 3.88 457 4560 (2018) 76 (2017) 743 78 88 109 182 579 1240 3830
2020-02-25 03:30 3.88 457 4560 (2018) 76 (2017) 743 78 88 109 182 579 1240 3830
2020-02-25 02:30 3.87 453 4560 (2018) 76 (2017) 743 78 88 109 182 579 1240 3830
2020-02-25 01:30 3.86 449 4560 (2018) 76 (2017) 743 78 88 109 182 579 1240 3830
2020-02-25 00:30 3.84 440 4560 (2018) 76 (2017) 743 78 88 109 182 579 1240 3830
2020-02-24 23:30 3.83 436 6470 (2018) 80 (2017) 807 82 88 103 174 688 805 4780
2020-02-24 22:30 3.81 428 6470 (2018) 80 (2017) 807 82 88 103 174 688 805 4780
2020-02-24 21:30 3.77 412 6470 (2018) 80 (2017) 807 82 88 103 174 688 805 4780
2020-02-24 20:30 3.74 404 6470 (2018) 80 (2017) 807 82 88 103 174 688 805 4780
2020-02-24 19:30 3.70 388 6470 (2018) 80 (2017) 807 82 88 103 174 688 805 4780
2020-02-24 18:30 3.68 380 6470 (2018) 80 (2017) 807 82 88 103 174 688 805 4780
2020-02-24 17:30 3.63 361 6470 (2018) 80 (2017) 807 82 88 103 174 688 805 4780
2020-02-24 16:30 3.54 328 6470 (2018) 80 (2017) 807 82 88 103 174 688 805 4780
2020-02-24 15:30 3.49 314 6470 (2018) 80 (2017) 807 82 88 103 174 688 805 4780
2020-02-24 14:30 3.46 303 6470 (2018) 80 (2017) 807 82 88 103 174 688 805 4780
2020-02-24 13:30 3.44 296 6470 (2018) 80 (2017) 807 82 88 103 174 688 805 4780
2020-02-24 12:30 3.42 289 6470 (2018) 80 (2017) 807 82 88 103 174 688 805 4780
2020-02-24 11:30 3.39 279 6470 (2018) 80 (2017) 807 82 88 103 174 688 805 4780
2020-02-24 10:30 3.37 273 6470 (2018) 80 (2017) 807 82 88 103 174 688 805 4780
2020-02-24 09:30 3.36 270 6470 (2018) 80 (2017) 807 82 88 103 174 688 805 4780
2020-02-24 08:30 3.34 263 6470 (2018) 80 (2017) 807 82 88 103 174 688 805 4780
2020-02-24 07:30 3.32 260 6470 (2018) 80 (2017) 807 82 88 103 174 688 805 4780
2020-02-24 06:30 3.32 260 6470 (2018) 80 (2017) 807 82 88 103 174 688 805 4780
2020-02-24 05:30 3.31 257 6470 (2018) 80 (2017) 807 82 88 103 174 688 805 4780
2020-02-24 04:30 3.30 254 6470 (2018) 80 (2017) 807 82 88 103 174 688 805 4780
2020-02-24 03:30 3.29 250 6470 (2018) 80 (2017) 807 82 88 103 174 688 805 4780
2020-02-24 02:30 3.27 244 6470 (2018) 80 (2017) 807 82 88 103 174 688 805 4780
2020-02-24 01:30 3.26 241 6470 (2018) 80 (2017) 807 82 88 103 174 688 805 4780
2020-02-24 00:30 3.25 238 6470 (2018) 80 (2017) 807 82 88 103 174 688 805 4780
2020-02-23 23:30 3.24 235 790 (2019) 83 (2017) 266 84 90 105 182 422 480 705
2020-02-23 22:30 3.24 235 790 (2019) 83 (2017) 266 84 90 105 182 422 480 705
2020-02-23 21:30 3.24 235 790 (2019) 83 (2017) 266 84 90 105 182 422 480 705
2020-02-23 20:30 3.24 235 790 (2019) 83 (2017) 266 84 90 105 182 422 480 705
2020-02-23 19:30 3.24 235 790 (2019) 83 (2017) 266 84 90 105 182 422 480 705
2020-02-23 18:30 3.25 238 790 (2019) 83 (2017) 266 84 90 105 182 422 480 705
2020-02-23 17:30 3.24 235 790 (2019) 83 (2017) 266 84 90 105 182 422 480 705
2020-02-23 16:30 3.24 235 790 (2019) 83 (2017) 266 84 90 105 182 422 480 705
2020-02-23 15:30 3.26 241 790 (2019) 83 (2017) 266 84 90 105 182 422 480 705
2020-02-23 14:30 3.25 238 790 (2019) 83 (2017) 266 84 90 105 182 422 480 705
2020-02-23 13:30 3.25 238 790 (2019) 83 (2017) 266 84 90 105 182 422 480 705
2020-02-23 12:30 3.25 238 790 (2019) 83 (2017) 266 84 90 105 182 422 480 705
2020-02-23 11:30 3.26 241 790 (2019) 83 (2017) 266 84 90 105 182 422 480 705
2020-02-23 10:30 3.25 238 790 (2019) 83 (2017) 266 84 90 105 182 422 480 705
2020-02-23 09:30 3.25 238 790 (2019) 83 (2017) 266 84 90 105 182 422 480 705
2020-02-23 08:30 3.25 238 790 (2019) 83 (2017) 266 84 90 105 182 422 480 705
2020-02-23 07:30 3.26 241 790 (2019) 83 (2017) 266 84 90 105 182 422 480 705
2020-02-23 06:30 3.25 238 790 (2019) 83 (2017) 266 84 90 105 182 422 480 705
2020-02-23 05:30 3.25 238 790 (2019) 83 (2017) 266 84 90 105 182 422 480 705
2020-02-23 04:30 3.25 238 790 (2019) 83 (2017) 266 84 90 105 182 422 480 705
2020-02-23 03:30 3.24 235 790 (2019) 83 (2017) 266 84 90 105 182 422 480 705
2020-02-23 02:30 3.26 241 790 (2019) 83 (2017) 266 84 90 105 182 422 480 705
2020-02-23 01:30 3.26 241 790 (2019) 83 (2017) 266 84 90 105 182 422 480 705
2020-02-23 00:30 3.27 244 790 (2019) 83 (2017) 266 84 90 105 182 422 480 705
2020-02-22 23:30 3.26 241 869 (2019) 83 (2017) 302 85 91 106 191 509 591 799
2020-02-22 22:30 3.27 244 869 (2019) 83 (2017) 302 85 91 106 191 509 591 799
2020-02-22 21:30 3.26 241 869 (2019) 83 (2017) 302 85 91 106 191 509 591 799
2020-02-22 20:30 3.26 241 869 (2019) 83 (2017) 302 85 91 106 191 509 591 799
2020-02-22 19:30 3.26 241 869 (2019) 83 (2017) 302 85 91 106 191 509 591 799
2020-02-22 18:30 3.27 244 869 (2019) 83 (2017) 302 85 91 106 191 509 591 799
2020-02-22 17:30 3.27 244 869 (2019) 83 (2017) 302 85 91 106 191 509 591 799
2020-02-22 16:30 3.27 244 869 (2019) 83 (2017) 302 85 91 106 191 509 591 799
2020-02-22 15:30 3.27 244 869 (2019) 83 (2017) 302 85 91 106 191 509 591 799
2020-02-22 14:30 3.27 244 869 (2019) 83 (2017) 302 85 91 106 191 509 591 799
2020-02-22 13:30 3.27 244 869 (2019) 83 (2017) 302 85 91 106 191 509 591 799
2020-02-22 12:30 3.28 247 869 (2019) 83 (2017) 302 85 91 106 191 509 591 799
2020-02-22 11:30 3.27 244 869 (2019) 83 (2017) 302 85 91 106 191 509 591 799
2020-02-22 10:30 3.27 244 869 (2019) 83 (2017) 302 85 91 106 191 509 591 799
2020-02-22 09:30 3.28 247 869 (2019) 83 (2017) 302 85 91 106 191 509 591 799
2020-02-22 08:30 3.27 244 869 (2019) 83 (2017) 302 85 91 106 191 509 591 799
2020-02-22 07:30 3.28 247 869 (2019) 83 (2017) 302 85 91 106 191 509 591 799
2020-02-22 06:30 3.28 247 869 (2019) 83 (2017) 302 85 91 106 191 509 591 799
2020-02-22 05:30 3.28 247 869 (2019) 83 (2017) 302 85 91 106 191 509 591 799
2020-02-22 04:30 3.28 247 869 (2019) 83 (2017) 302 85 91 106 191 509 591 799
2020-02-22 03:30 3.29 250 869 (2019) 83 (2017) 302 85 91 106 191 509 591 799
2020-02-22 02:30 3.29 250 869 (2019) 83 (2017) 302 85 91 106 191 509 591 799
2020-02-22 01:30 3.28 247 869 (2019) 83 (2017) 302 85 91 106 191 509 591 799
2020-02-22 00:30 3.30 254 869 (2019) 83 (2017) 302 85 91 106 191 509 591 799
2020-02-21 23:30 3.29 250 1190 (2019) 74 (2017) 345 79 91 107 207 391 628 1120
2020-02-21 22:30 3.30 254 1190 (2019) 74 (2017) 345 79 91 107 207 391 628 1120
2020-02-21 21:30 3.30 254 1190 (2019) 74 (2017) 345 79 91 107 207 391 628 1120
2020-02-21 20:30 3.29 250 1190 (2019) 74 (2017) 345 79 91 107 207 391 628 1120
2020-02-21 19:30 3.31 257 1190 (2019) 74 (2017) 345 79 91 107 207 391 628 1120
2020-02-21 18:30 3.30 254 1190 (2019) 74 (2017) 345 79 91 107 207 391 628 1120
2020-02-21 17:30 3.31 257 1190 (2019) 74 (2017) 345 79 91 107 207 391 628 1120
2020-02-21 16:30 3.31 257 1190 (2019) 74 (2017) 345 79 91 107 207 391 628 1120
2020-02-21 15:30 3.30 254 1190 (2019) 74 (2017) 345 79 91 107 207 391 628 1120
2020-02-21 14:30 3.32 260 1190 (2019) 74 (2017) 345 79 91 107 207 391 628 1120
2020-02-21 13:30 3.32 260 1190 (2019) 74 (2017) 345 79 91 107 207 391 628 1120
2020-02-21 12:30 3.32 260 1190 (2019) 74 (2017) 345 79 91 107 207 391 628 1120
2020-02-21 11:30 3.32 260 1190 (2019) 74 (2017) 345 79 91 107 207 391 628 1120
2020-02-21 10:30 3.31 257 1190 (2019) 74 (2017) 345 79 91 107 207 391 628 1120
2020-02-21 09:30 3.32 260 1190 (2019) 74 (2017) 345 79 91 107 207 391 628 1120
2020-02-21 08:30 3.34 263 1190 (2019) 74 (2017) 345 79 91 107 207 391 628 1120
2020-02-21 07:30 3.34 263 1190 (2019) 74 (2017) 345 79 91 107 207 391 628 1120
2020-02-21 06:30 3.34 263 1190 (2019) 74 (2017) 345 79 91 107 207 391 628 1120
2020-02-21 05:30 3.34 263 1190 (2019) 74 (2017) 345 79 91 107 207 391 628 1120
2020-02-21 04:30 3.35 266 1190 (2019) 74 (2017) 345 79 91 107 207 391 628 1120
2020-02-21 03:30 3.34 263 1190 (2019) 74 (2017) 345 79 91 107 207 391 628 1120
2020-02-21 02:30 3.34 263 1190 (2019) 74 (2017) 345 79 91 107 207 391 628 1120
2020-02-21 01:30 3.36 270 1190 (2019) 74 (2017) 345 79 91 107 207 391 628 1120
2020-02-21 00:30 3.35 266 1190 (2019) 74 (2017) 345 79 91 107 207 391 628 1120
2020-02-20 23:30 3.37 273 860 (2019) 67 (2017) 254 72 87 91 184 279 379 760
2020-02-20 22:30 3.37 273 860 (2019) 67 (2017) 254 72 87 91 184 279 379 760
2020-02-20 21:30 3.36 270 860 (2019) 67 (2017) 254 72 87 91 184 279 379 760
2020-02-20 20:30 3.37 273 860 (2019) 67 (2017) 254 72 87 91 184 279 379 760
2020-02-20 19:30 3.37 273 860 (2019) 67 (2017) 254 72 87 91 184 279 379 760
2020-02-20 18:30 3.37 273 860 (2019) 67 (2017) 254 72 87 91 184 279 379 760
2020-02-20 17:30 3.37 273 860 (2019) 67 (2017) 254 72 87 91 184 279 379 760
2020-02-20 16:30 3.38 276 860 (2019) 67 (2017) 254 72 87 91 184 279 379 760
2020-02-20 15:30 3.39 279 860 (2019) 67 (2017) 254 72 87 91 184 279 379 760
2020-02-20 14:30 3.39 279 860 (2019) 67 (2017) 254 72 87 91 184 279 379 760
2020-02-20 13:30 3.39 279 860 (2019) 67 (2017) 254 72 87 91 184 279 379 760
2020-02-20 12:30 3.40 283 860 (2019) 67 (2017) 254 72 87 91 184 279 379 760
2020-02-20 11:30 3.39 279 860 (2019) 67 (2017) 254 72 87 91 184 279 379 760
2020-02-20 10:30 3.40 283 860 (2019) 67 (2017) 254 72 87 91 184 279 379 760
2020-02-20 09:30 3.40 283 860 (2019) 67 (2017) 254 72 87 91 184 279 379 760
2020-02-20 08:30 3.40 283 860 (2019) 67 (2017) 254 72 87 91 184 279 379 760
2020-02-20 07:30 3.41 286 860 (2019) 67 (2017) 254 72 87 91 184 279 379 760
2020-02-20 06:30 3.42 289 860 (2019) 67 (2017) 254 72 87 91 184 279 379 760
2020-02-20 05:30 3.42 289 860 (2019) 67 (2017) 254 72 87 91 184 279 379 760
2020-02-20 04:30 3.41 286 860 (2019) 67 (2017) 254 72 87 91 184 279 379 760
2020-02-20 03:30 3.42 289 860 (2019) 67 (2017) 254 72 87 91 184 279 379 760
2020-02-20 02:30 3.42 289 860 (2019) 67 (2017) 254 72 87 91 184 279 379 760
2020-02-20 01:30 3.42 289 860 (2019) 67 (2017) 254 72 87 91 184 279 379 760
2020-02-20 00:30 3.42 289 860 (2019) 67 (2017) 254 72 87 91 184 279 379 760
2020-02-19 23:30 3.43 293 800 (2008) 66 (2017) 247 68 79 84 194 285 372 710
2020-02-19 22:30 3.43 293 800 (2008) 66 (2017) 247 68 79 84 194 285 372 710
2020-02-19 21:30 3.44 296 800 (2008) 66 (2017) 247 68 79 84 194 285 372 710
2020-02-19 20:30 3.44 296 800 (2008) 66 (2017) 247 68 79 84 194 285 372 710
2020-02-19 19:30 3.45 300 800 (2008) 66 (2017) 247 68 79 84 194 285 372 710
2020-02-19 18:30 3.45 300 800 (2008) 66 (2017) 247 68 79 84 194 285 372 710
2020-02-19 17:30 3.44 296 800 (2008) 66 (2017) 247 68 79 84 194 285 372 710
2020-02-19 16:30 3.46 303 800 (2008) 66 (2017) 247 68 79 84 194 285 372 710
2020-02-19 15:30 3.46 303 800 (2008) 66 (2017) 247 68 79 84 194 285 372 710
2020-02-19 14:30 3.47 307 800 (2008) 66 (2017) 247 68 79 84 194 285 372 710
2020-02-19 13:30 3.47 307 800 (2008) 66 (2017) 247 68 79 84 194 285 372 710
2020-02-19 12:30 3.47 307 800 (2008) 66 (2017) 247 68 79 84 194 285 372 710
2020-02-19 11:30 3.48 310 800 (2008) 66 (2017) 247 68 79 84 194 285 372 710
2020-02-19 10:30 3.46 303 800 (2008) 66 (2017) 247 68 79 84 194 285 372 710
2020-02-19 09:30 3.48 310 800 (2008) 66 (2017) 247 68 79 84 194 285 372 710
2020-02-19 08:30 3.49 314 800 (2008) 66 (2017) 247 68 79 84 194 285 372 710
2020-02-19 07:30 3.49 314 800 (2008) 66 (2017) 247 68 79 84 194 285 372 710
2020-02-19 06:30 3.49 314 800 (2008) 66 (2017) 247 68 79 84 194 285 372 710
2020-02-19 05:30 3.50 317 800 (2008) 66 (2017) 247 68 79 84 194 285 372 710
2020-02-19 04:30 3.50 317 800 (2008) 66 (2017) 247 68 79 84 194 285 372 710
2020-02-19 03:30 3.50 317 800 (2008) 66 (2017) 247 68 79 84 194 285 372 710
2020-02-19 02:30 3.51 321 800 (2008) 66 (2017) 247 68 79 84 194 285 372 710
2020-02-19 01:30 3.51 321 800 (2008) 66 (2017) 247 68 79 84 194 285 372 710
2020-02-19 00:30 3.52 324 800 (2008) 66 (2017) 247 68 79 84 194 285 372 710
2020-02-18 23:30 3.54 328 1870 (2008) 66 (2017) 352 66 78 86 215 325 414 1470
2020-02-18 22:30 3.54 328 1870 (2008) 66 (2017) 352 66 78 86 215 325 414 1470
2020-02-18 21:30 3.54 328 1870 (2008) 66 (2017) 352 66 78 86 215 325 414 1470
2020-02-18 20:30 3.54 328 1870 (2008) 66 (2017) 352 66 78 86 215 325 414 1470
2020-02-18 19:30 3.56 335 1870 (2008) 66 (2017) 352 66 78 86 215 325 414 1470
2020-02-18 18:30 3.56 335 1870 (2008) 66 (2017) 352 66 78 86 215 325 414 1470
2020-02-18 17:30 3.56 335 1870 (2008) 66 (2017) 352 66 78 86 215 325 414 1470
2020-02-18 16:30 3.56 335 1870 (2008) 66 (2017) 352 66 78 86 215 325 414 1470
2020-02-18 15:30 3.56 335 1870 (2008) 66 (2017) 352 66 78 86 215 325 414 1470
2020-02-18 14:30 3.58 342 1870 (2008) 66 (2017) 352 66 78 86 215 325 414 1470
2020-02-18 13:30 3.57 339 1870 (2008) 66 (2017) 352 66 78 86 215 325 414 1470
2020-02-18 12:30 3.58 342 1870 (2008) 66 (2017) 352 66 78 86 215 325 414 1470
2020-02-18 11:30 3.59 346 1870 (2008) 66 (2017) 352 66 78 86 215 325 414 1470
2020-02-18 10:30 3.59 346 1870 (2008) 66 (2017) 352 66 78 86 215 325 414 1470
2020-02-18 09:30 3.59 346 1870 (2008) 66 (2017) 352 66 78 86 215 325 414 1470
2020-02-18 08:30 3.58 342 1870 (2008) 66 (2017) 352 66 78 86 215 325 414 1470
2020-02-18 07:30 3.60 350 1870 (2008) 66 (2017) 352 66 78 86 215 325 414 1470
2020-02-18 06:30 3.60 350 1870 (2008) 66 (2017) 352 66 78 86 215 325 414 1470
2020-02-18 05:30 3.61 353 1870 (2008) 66 (2017) 352 66 78 86 215 325 414 1470
2020-02-18 04:30 3.62 357 1870 (2008) 66 (2017) 352 66 78 86 215 325 414 1470
2020-02-18 03:30 3.62 357 1870 (2008) 66 (2017) 352 66 78 86 215 325 414 1470
2020-02-18 02:30 3.62 357 1870 (2008) 66 (2017) 352 66 78 86 215 325 414 1470
2020-02-18 01:30 3.62 357 1870 (2008) 66 (2017) 352 66 78 86 215 325 414 1470
2020-02-18 00:30 3.62 357 1870 (2008) 66 (2017) 352 66 78 86 215 325 414 1470

A total of 182 rows are displayed for years 2008 through 2019.